createdAt,value
2019-02-22T00:01:21.145Z,114.28
2019-02-22T00:03:47.756Z,107.95
2019-02-22T00:06:13.965Z,111.57
2019-02-22T00:08:41.840Z,118.65
2019-02-22T00:11:08.905Z,152.10
2019-02-22T00:13:35.899Z,149.05
2019-02-22T00:16:02.094Z,142.98
2019-02-22T00:18:28.231Z,124.62
2019-02-22T00:20:56.811Z,145.92
2019-02-22T00:23:24.322Z,241.02
2019-02-22T00:25:50.524Z,188.70
2019-02-22T00:28:19.793Z,233.68
2019-02-22T00:30:48.885Z,168.62
2019-02-22T00:33:16.832Z,183.65
2019-02-22T00:35:43.032Z,261.52
2019-02-22T00:38:10.859Z,159.95
2019-02-22T00:40:37.044Z,282.40
2019-02-22T00:43:03.152Z,224.98
2019-02-22T00:45:29.369Z,440.65
2019-02-22T00:47:55.488Z,357.37
2019-02-22T00:50:21.677Z,314.40
2019-02-22T00:52:51.687Z,706.30
2019-02-22T00:55:17.901Z,127.10
2019-02-22T00:57:44.829Z,152.25
2019-02-22T01:00:11.034Z,134.07
2019-02-22T01:02:37.203Z,126.90
2019-02-22T01:05:05.893Z,122.98
2019-02-22T01:07:32.021Z,105.95
2019-02-22T01:09:58.220Z,125.58
2019-02-22T01:12:24.318Z,147.45
2019-02-22T01:14:53.733Z,146.85
2019-02-22T01:17:22.719Z,116.40
2019-02-22T01:19:48.932Z,146.82
2019-02-22T01:22:15.378Z,127.85
2019-02-22T01:24:41.576Z,137.62
2019-02-22T01:27:07.735Z,114.95
2019-02-22T01:29:33.944Z,131.37
2019-02-22T01:32:04.872Z,134.85
2019-02-22T01:34:31.089Z,136.92
2019-02-22T01:36:57.201Z,162.03
2019-02-22T01:39:23.939Z,126.70
2019-02-22T01:41:50.081Z,131.18
2019-02-22T01:44:17.833Z,124.45
2019-02-22T01:46:44.087Z,134.20
2019-02-22T01:49:10.345Z,117.08
2019-02-22T01:51:37.948Z,128.50
2019-02-22T01:54:05.893Z,136.47
2019-02-22T01:56:34.725Z,224.62
2019-02-22T01:59:04.751Z,206.97
2019-02-22T02:01:31.463Z,349.48
2019-02-22T02:03:57.916Z,150.35
2019-02-22T02:06:24.194Z,322.93
2019-02-22T02:08:50.389Z,141.53
2019-02-22T02:11:19.753Z,198.32
2019-02-22T02:13:45.967Z,176.85
2019-02-22T02:16:12.078Z,594.52
2019-02-22T02:18:38.284Z,235.72
2019-02-22T02:21:04.423Z,353.07
2019-02-22T02:23:31.915Z,98.62
2019-02-22T02:25:58.084Z,192.82
2019-02-22T02:28:24.315Z,488.68
2019-02-22T02:30:50.511Z,822.55
2019-02-22T02:33:18.031Z,1213.75
2019-02-22T02:35:45.611Z,1397.58
2019-02-22T02:38:14.815Z,1207.85
2019-02-22T02:40:43.974Z,1550.68
2019-02-22T02:43:10.973Z,1469.60
2019-02-22T02:45:37.215Z,1359.18
2019-02-22T02:48:03.457Z,1462.33
2019-02-22T02:50:33.487Z,1629.50
2019-02-22T02:52:59.701Z,959.92
2019-02-22T02:55:40.682Z,1729.90
2019-02-22T02:58:06.870Z,1524.95
2019-02-22T03:00:33.015Z,1686.63
2019-02-22T03:02:59.154Z,1553.13
2019-02-22T03:05:31.712Z,1534.93
2019-02-22T03:08:02.902Z,1755.83
2019-02-22T03:10:31.483Z,1207.68
2019-02-22T03:12:57.209Z,1591.25
2019-02-22T03:15:25.828Z,860.30
2019-02-22T03:17:54.912Z,1296.48
2019-02-22T03:20:21.046Z,995.12
2019-02-22T03:22:47.197Z,1307.20
2019-02-22T03:25:13.402Z,609.87
2019-02-22T03:27:40.603Z,485.05
2019-02-22T03:30:08.846Z,941.98
2019-02-22T03:32:37.009Z,270.65
2019-02-22T03:35:05.315Z,572.25
2019-02-22T03:37:32.609Z,539.27
2019-02-22T03:40:00.976Z,581.05
2019-02-22T03:42:30.903Z,297.98
2019-02-22T03:44:59.919Z,196.00
2019-02-22T03:47:26.012Z,151.45
2019-02-22T03:49:52.714Z,91.75
2019-02-22T03:52:25.714Z,87.35
2019-02-22T03:54:51.952Z,116.57
2019-02-22T03:57:18.052Z,73.97
2019-02-22T03:59:44.278Z,83.03
2019-02-22T04:02:10.496Z,92.47
2019-02-22T04:04:38.011Z,93.47
2019-02-22T04:07:04.213Z,72.78
2019-02-22T04:09:30.371Z,48.05
2019-02-22T04:11:56.611Z,56.35
2019-02-22T04:14:22.855Z,63.42
2019-02-22T04:16:49.059Z,81.63
2019-02-22T04:19:18.209Z,60.65
2019-02-22T04:21:47.023Z,100.17
2019-02-22T04:24:14.007Z,63.08
2019-02-22T04:26:43.933Z,96.87
2019-02-22T04:29:10.255Z,79.60
2019-02-22T04:31:36.378Z,65.40
2019-02-22T04:34:02.652Z,84.10
2019-02-22T04:36:28.853Z,90.53
2019-02-22T04:38:54.940Z,102.65
2019-02-22T04:41:21.116Z,76.70
2019-02-22T04:43:50.848Z,69.15
2019-02-22T04:46:18.282Z,92.08
2019-02-22T04:48:48.233Z,92.12
2019-02-22T04:51:17.445Z,94.35
2019-02-22T04:53:43.697Z,91.63
2019-02-22T04:56:09.908Z,97.27
2019-02-22T04:58:36.036Z,69.67
2019-02-22T05:01:02.222Z,54.63
2019-02-22T05:03:28.317Z,65.83
2019-02-22T05:05:54.576Z,88.50
2019-02-22T05:08:20.670Z,98.67
2019-02-22T05:10:52.855Z,82.65
2019-02-22T05:13:20.006Z,83.90
2019-02-22T05:15:46.259Z,67.25
2019-02-22T05:18:12.412Z,77.58
2019-02-22T05:20:38.643Z,100.50
2019-02-22T05:23:07.454Z,80.40
2019-02-22T05:25:32.847Z,81.75
2019-02-22T05:27:59.152Z,72.62
2019-02-22T05:30:25.399Z,61.00
2019-02-22T05:32:51.758Z,55.90
2019-02-22T05:35:18.023Z,57.40
2019-02-22T05:37:44.267Z,51.50
2019-02-22T05:40:10.464Z,57.03
2019-02-22T05:42:39.539Z,51.15
2019-02-22T05:45:05.938Z,56.02
2019-02-22T05:47:32.043Z,118.00
2019-02-22T05:49:58.241Z,29.98
2019-02-22T05:52:24.382Z,22.15
2019-02-22T05:54:50.747Z,21.52
2019-02-22T05:57:17.945Z,25.62
2019-02-22T05:59:44.104Z,23.18
2019-02-22T06:02:10.389Z,21.73
2019-02-22T06:04:37.261Z,25.92
2019-02-22T06:07:03.538Z,24.65
2019-02-22T06:09:29.766Z,27.87
2019-02-22T06:11:59.572Z,32.15
2019-02-22T06:14:26.436Z,25.35
2019-02-22T06:16:52.890Z,25.55
2019-02-22T06:19:20.705Z,20.62
2019-02-22T06:21:47.340Z,22.62
2019-02-22T06:24:14.234Z,21.02
2019-02-22T06:26:40.810Z,18.73
2019-02-22T06:29:07.041Z,18.57
2019-02-22T06:31:34.831Z,18.60
2019-02-22T06:34:04.143Z,17.48
2019-02-22T06:36:30.221Z,19.32
2019-02-22T06:38:56.421Z,19.10
2019-02-22T06:41:24.000Z,17.60
2019-02-22T06:43:50.217Z,13.25
2019-02-22T06:46:17.977Z,12.45
2019-02-22T06:48:44.424Z,17.87
2019-02-22T06:51:10.578Z,20.97
2019-02-22T06:53:39.959Z,14.35
2019-02-22T06:56:07.971Z,11.22
2019-02-22T06:58:34.296Z,17.52
2019-02-22T07:01:00.404Z,15.78
2019-02-22T07:03:26.615Z,18.10
2019-02-22T07:05:52.717Z,19.10
2019-02-22T07:08:19.014Z,16.52
2019-02-22T07:10:47.151Z,15.43
2019-02-22T07:13:13.383Z,15.83
2019-02-22T07:15:39.485Z,10.95
2019-02-22T07:18:05.680Z,14.78
2019-02-22T07:20:38.234Z,12.55
2019-02-22T07:23:04.871Z,12.60
2019-02-22T07:25:31.093Z,12.47
2019-02-22T07:27:57.310Z,11.15
2019-02-22T07:30:23.952Z,12.37
2019-02-22T07:32:54.352Z,12.23
2019-02-22T07:35:20.732Z,14.78
2019-02-22T07:37:49.127Z,11.28
2019-02-22T07:40:15.262Z,12.35
2019-02-22T07:42:43.084Z,14.15
2019-02-22T07:45:09.515Z,13.85
2019-02-22T07:47:35.698Z,15.50
2019-02-22T07:50:01.904Z,20.97
2019-02-22T07:52:28.682Z,20.62
2019-02-22T07:54:55.822Z,23.30
2019-02-22T07:57:22.387Z,25.50
2019-02-22T07:59:49.020Z,18.82
2019-02-22T08:02:15.511Z,21.33
2019-02-22T08:04:42.071Z,16.15
2019-02-22T08:07:08.399Z,18.67
2019-02-22T08:09:34.734Z,15.95
2019-02-22T08:12:00.982Z,15.30
2019-02-22T08:14:32.329Z,15.15
2019-02-22T08:16:58.568Z,17.42
2019-02-22T08:19:35.360Z,14.80
2019-02-22T08:22:11.280Z,12.82
2019-02-22T08:24:42.169Z,13.53
2019-02-22T08:27:12.307Z,14.18
2019-02-22T08:42:39.814Z,14.98
2019-02-22T08:45:10.060Z,14.53
2019-02-22T08:47:36.520Z,10.63
2019-02-22T08:50:04.328Z,11.78
2019-02-22T08:52:30.637Z,16.27
2019-02-22T08:54:56.884Z,10.75
2019-02-22T08:57:23.255Z,13.95
2019-02-22T08:59:49.496Z,12.05
2019-02-22T09:02:19.402Z,13.43
2019-02-22T09:07:13.447Z,19.07
2019-02-22T09:09:39.715Z,14.95
2019-02-22T09:12:06.048Z,10.68
2019-02-22T09:14:40.284Z,11.10
2019-02-22T09:17:09.198Z,12.28
2019-02-22T09:19:35.692Z,9.93
2019-02-22T09:22:01.932Z,10.03
2019-02-22T09:24:28.156Z,11.05
2019-02-22T09:26:54.259Z,12.98
2019-02-22T09:29:20.505Z,9.43
2019-02-22T09:31:46.706Z,10.30
2019-02-22T09:34:13.095Z,11.80
2019-02-22T09:36:40.334Z,10.90
2019-02-22T09:39:06.544Z,8.38
2019-02-22T09:41:33.470Z,11.95
2019-02-22T09:44:02.750Z,10.43
2019-02-22T09:46:28.887Z,10.03
2019-02-22T09:48:55.109Z,10.65
2019-02-22T09:51:21.204Z,14.58
2019-02-22T09:53:51.003Z,14.35
2019-02-22T09:56:17.465Z,16.70
2019-02-22T09:58:48.127Z,16.07
2019-02-22T10:01:14.328Z,13.98
2019-02-22T10:03:40.529Z,14.95
2019-02-22T10:06:06.688Z,15.35
2019-02-22T10:08:35.559Z,15.10
2019-02-22T10:11:01.658Z,15.80
2019-02-22T10:13:28.011Z,14.03
2019-02-22T10:15:54.376Z,12.10
2019-02-22T10:18:21.558Z,12.55
2019-02-22T10:20:48.105Z,11.65
2019-02-22T10:23:14.357Z,14.33
2019-02-22T10:25:41.367Z,16.55
2019-02-22T10:28:17.322Z,15.78
2019-02-22T10:30:38.812Z,13.88
2019-02-22T10:33:05.863Z,14.47
2019-02-22T10:35:32.898Z,16.80
2019-02-22T10:38:00.306Z,15.95
2019-02-22T10:40:29.418Z,14.80
2019-02-22T10:42:57.229Z,15.83
2019-02-22T10:45:24.243Z,16.10
2019-02-22T10:47:51.340Z,16.93
2019-02-22T10:50:17.545Z,21.57
2019-02-22T10:52:43.739Z,24.07
2019-02-22T10:55:11.454Z,20.50
2019-02-22T10:57:37.787Z,17.87
2019-02-22T11:00:10.015Z,20.75
2019-02-22T11:02:36.320Z,20.65
2019-02-22T11:05:02.412Z,20.25
2019-02-22T11:07:30.544Z,14.75
2019-02-22T11:09:56.664Z,15.95
2019-02-22T11:12:22.891Z,15.55
2019-02-22T11:14:49.055Z,14.45
2019-02-22T11:17:15.260Z,17.02
2019-02-22T11:19:45.693Z,12.90
2019-02-22T11:22:09.672Z,10.93
2019-02-22T11:24:37.688Z,9.30
2019-02-22T11:27:04.764Z,10.30
2019-02-22T11:29:41.218Z,10.43
2019-02-22T11:32:08.706Z,13.20
2019-02-22T11:35:05.987Z,15.48
2019-02-22T11:37:32.331Z,13.55
2019-02-22T11:39:58.482Z,13.53
2019-02-22T11:42:24.687Z,13.03
2019-02-22T11:44:51.029Z,12.98
2019-02-22T11:47:17.248Z,12.58
2019-02-22T11:49:43.612Z,12.00
2019-02-22T11:52:18.760Z,10.90
2019-02-22T11:54:45.256Z,9.73
2019-02-22T11:57:11.500Z,10.88
2019-02-22T11:59:37.605Z,10.13
2019-02-22T12:02:03.819Z,9.63
2019-02-22T12:04:30.137Z,10.35
2019-02-22T12:06:56.345Z,10.38
2019-02-22T12:09:22.540Z,10.70
2019-02-22T12:11:48.877Z,10.72
2019-02-22T12:14:15.397Z,11.40
2019-02-22T12:16:42.604Z,15.88
2019-02-22T12:19:08.808Z,16.95
2019-02-22T12:21:35.082Z,12.90
2019-02-22T12:24:01.381Z,11.50
2019-02-22T12:26:27.632Z,14.07
2019-02-22T12:28:53.854Z,13.45
2019-02-22T12:31:20.081Z,12.37
2019-02-22T12:33:46.374Z,14.45
2019-02-22T12:36:12.667Z,13.15
2019-02-22T12:38:38.897Z,12.90
2019-02-22T12:41:10.867Z,12.55
2019-02-22T12:43:39.061Z,14.87
2019-02-22T12:46:05.205Z,11.93
2019-02-22T12:48:31.427Z,12.13
2019-02-22T12:50:57.614Z,11.48
2019-02-22T12:53:23.841Z,12.70
2019-02-22T12:55:49.968Z,13.95
2019-02-22T12:58:16.227Z,11.95
2019-02-22T13:00:42.294Z,14.85
2019-02-22T13:03:08.599Z,13.20
2019-02-22T13:05:34.962Z,13.45
2019-02-22T13:08:01.129Z,13.65
2019-02-22T13:10:27.284Z,15.38
2019-02-22T13:12:53.493Z,12.70
2019-02-22T13:15:19.630Z,12.37
2019-02-22T13:17:46.185Z,13.20
2019-02-22T13:25:46.403Z,10.38
2019-02-22T13:28:12.620Z,12.23
2019-02-22T13:30:38.931Z,11.12
2019-02-22T13:33:05.133Z,10.70
2019-02-22T13:35:31.372Z,10.70
2019-02-22T13:37:58.867Z,17.40
2019-02-22T13:40:52.493Z,23.73
2019-02-22T13:43:18.556Z,29.32
2019-02-22T13:47:37.223Z,30.25
2019-02-22T13:48:32.376Z,32.28
2019-02-22T13:50:58.840Z,32.78
2019-02-22T13:53:31.993Z,31.52
2019-02-22T13:56:08.241Z,29.30
2019-02-22T13:58:41.518Z,26.37
2019-02-22T14:03:58.488Z,19.05
2019-02-22T14:06:35.530Z,28.90
2019-02-22T14:12:15.859Z,27.05
2019-02-22T14:14:42.023Z,27.37
2019-02-22T14:17:08.420Z,30.52
2019-02-22T14:19:42.501Z,33.33
2019-02-22T14:22:08.614Z,31.85
2019-02-22T14:24:34.943Z,30.23
2019-02-22T14:27:02.020Z,34.05
2019-02-22T14:29:28.617Z,29.20
2019-02-22T14:31:55.061Z,30.75
2019-02-22T14:34:21.320Z,32.03
2019-02-22T14:36:47.879Z,32.40
2019-02-22T14:39:15.148Z,30.30
2019-02-22T14:41:41.422Z,30.60
2019-02-22T14:44:09.941Z,31.62
2019-02-22T14:46:36.175Z,30.80
2019-02-22T14:49:02.342Z,32.10
2019-02-22T14:51:28.494Z,25.05
2019-02-22T14:53:54.638Z,26.85
2019-02-22T14:56:20.908Z,25.70
2019-02-22T14:58:47.503Z,31.75
2019-02-22T15:01:13.654Z,31.75
2019-02-22T15:03:39.819Z,37.73
2019-02-22T15:06:05.955Z,33.08
2019-02-22T15:08:32.258Z,33.38
2019-02-22T15:10:58.409Z,31.40
2019-02-22T15:13:24.530Z,31.75
2019-02-22T15:16:07.742Z,33.65
2019-02-22T15:18:33.996Z,29.10
2019-02-22T15:21:00.202Z,33.33
2019-02-22T15:23:27.473Z,29.63
2019-02-22T15:25:54.045Z,32.00
2019-02-22T15:28:20.254Z,28.95
2019-02-22T15:30:46.762Z,31.68
2019-02-22T15:33:12.985Z,28.27
2019-02-22T15:35:39.230Z,29.45
2019-02-22T15:38:06.787Z,26.80
2019-02-22T15:40:39.296Z,25.43
2019-02-22T15:43:05.038Z,25.43
2019-02-22T15:45:31.232Z,27.98
2019-02-22T15:47:57.698Z,27.00
2019-02-22T15:50:23.923Z,22.95
2019-02-22T15:52:50.408Z,24.63
2019-02-22T15:55:16.687Z,24.00
2019-02-22T15:57:42.863Z,25.70
2019-02-22T16:00:18.550Z,24.15
2019-02-22T16:02:44.895Z,28.60
2019-02-22T16:05:13.200Z,22.60
2019-02-22T16:07:44.726Z,25.25
2019-02-22T16:10:08.593Z,23.57
2019-02-22T16:12:36.610Z,24.43
2019-02-22T16:15:05.682Z,25.23
2019-02-22T16:17:32.552Z,26.35
2019-02-22T16:19:59.691Z,27.42
2019-02-22T16:22:25.855Z,25.30
2019-02-22T16:24:52.043Z,25.77
2019-02-22T16:27:18.336Z,24.87
2019-02-22T16:29:44.447Z,22.90
2019-02-22T16:32:10.675Z,26.75
2019-02-22T16:34:43.504Z,29.35
2019-02-22T16:37:05.014Z,36.60
2019-02-22T16:39:31.172Z,29.80
2019-02-22T16:41:57.373Z,25.55
2019-02-22T16:44:23.481Z,29.02
2019-02-22T16:46:49.687Z,27.17
2019-02-22T16:49:15.785Z,30.72
2019-02-22T16:51:42.032Z,29.37
2019-02-22T16:54:08.120Z,28.10
2019-02-22T16:56:34.322Z,34.00
2019-02-22T16:59:00.492Z,31.60
2019-02-22T17:01:27.793Z,38.13
2019-02-22T17:03:54.191Z,35.08
2019-02-22T17:06:20.440Z,38.85
2019-02-22T17:08:47.738Z,28.52
2019-02-22T17:11:15.337Z,24.05
2019-02-22T17:13:41.720Z,27.20
2019-02-22T17:16:08.233Z,30.32
2019-02-22T17:18:38.388Z,35.30
2019-02-22T17:21:05.110Z,28.52
2019-02-22T17:23:33.436Z,27.58
2019-02-22T17:25:59.614Z,30.23
2019-02-22T17:28:25.739Z,32.33
2019-02-22T17:30:51.923Z,35.10
2019-02-22T17:33:18.046Z,39.53
2019-02-22T17:35:45.006Z,38.08
2019-02-22T17:38:14.316Z,36.63
2019-02-22T17:40:40.501Z,23.87
2019-02-22T17:43:06.741Z,29.12
2019-02-22T17:45:33.739Z,29.10
2019-02-22T17:48:00.276Z,28.85
2019-02-22T17:50:26.487Z,31.07
2019-02-22T17:52:52.740Z,30.50
2019-02-22T17:55:21.721Z,37.98
2019-02-22T17:57:48.680Z,27.90
2019-02-22T18:00:23.927Z,31.95
2019-02-22T18:02:50.117Z,28.30
2019-02-22T18:05:16.205Z,22.65
2019-02-22T18:07:42.402Z,23.77
2019-02-22T18:10:09.500Z,23.40
2019-02-22T18:12:36.366Z,26.48
2019-02-22T18:15:04.506Z,26.23
2019-02-22T18:17:30.704Z,33.20
2019-02-22T18:19:57.415Z,33.33
2019-02-22T18:22:26.253Z,32.42
2019-02-22T18:24:52.528Z,33.92
2019-02-22T18:27:22.443Z,29.52
2019-02-22T18:29:48.693Z,22.90
2019-02-22T18:32:15.755Z,20.40
2019-02-22T18:34:42.748Z,20.37
2019-02-22T18:37:10.092Z,24.65
2019-02-22T18:39:36.306Z,30.62
2019-02-22T18:42:05.412Z,30.08
2019-02-22T18:44:31.623Z,36.38
2019-02-22T18:46:57.732Z,37.55
2019-02-22T18:49:23.896Z,29.00
2019-02-22T18:51:50.265Z,31.40
2019-02-22T18:54:16.750Z,28.90
2019-02-22T18:56:42.942Z,35.25
2019-02-22T18:59:09.212Z,33.13
2019-02-22T19:01:37.343Z,30.77
2019-02-22T19:04:03.758Z,33.15
2019-02-22T19:06:30.607Z,30.10
2019-02-22T19:08:56.851Z,24.87
2019-02-22T19:11:23.487Z,23.77
2019-02-22T19:13:53.671Z,22.30
2019-02-22T19:16:21.802Z,20.57
2019-02-22T19:18:49.983Z,23.67
2019-02-22T19:21:16.211Z,22.85
2019-02-22T19:23:42.398Z,23.80
2019-02-22T19:26:08.504Z,22.82
2019-02-22T19:28:35.202Z,21.65
2019-02-22T19:31:01.308Z,22.75
2019-02-22T19:33:27.495Z,22.30
2019-02-22T19:35:53.581Z,22.85
2019-02-22T19:38:20.532Z,24.82
2019-02-22T19:40:48.190Z,22.90
2019-02-22T19:43:17.531Z,22.82
2019-02-22T19:45:43.623Z,22.48
2019-02-22T19:48:11.559Z,22.93
2019-02-22T19:50:41.415Z,21.50
2019-02-22T19:53:06.016Z,22.25
2019-02-22T19:55:32.107Z,21.35
2019-02-22T19:57:58.296Z,23.15
2019-02-22T20:00:26.426Z,19.17
2019-02-22T20:02:52.640Z,22.13
2019-02-22T20:05:18.838Z,20.77
2019-02-22T20:07:45.097Z,24.20
2019-02-22T20:10:19.365Z,20.90
2019-02-22T20:12:47.741Z,22.35
2019-02-22T20:15:15.737Z,22.10
2019-02-22T20:17:53.007Z,20.80
2019-02-22T20:20:12.792Z,19.45
2019-02-22T20:22:39.002Z,21.30
2019-02-22T20:25:05.668Z,22.02
2019-02-22T20:27:33.058Z,21.60
2019-02-22T20:30:01.246Z,22.77
2019-02-22T20:32:27.946Z,24.15
2019-02-22T20:34:54.169Z,21.85
2019-02-22T20:37:20.722Z,20.10
2019-02-22T20:39:50.765Z,24.05
2019-02-22T20:42:19.153Z,23.42
2019-02-22T20:44:46.595Z,24.90
2019-02-22T20:47:12.782Z,23.45
2019-02-22T20:49:39.280Z,26.35
2019-02-22T20:52:06.494Z,27.32
2019-02-22T20:54:32.707Z,23.57
2019-02-22T20:57:00.816Z,28.83
2019-02-22T20:59:30.753Z,27.40
2019-02-22T21:01:57.294Z,25.30
2019-02-22T21:04:23.595Z,26.02
2019-02-22T21:06:49.700Z,23.95
2019-02-22T21:09:15.879Z,24.23
2019-02-22T21:11:42.094Z,26.93
2019-02-22T21:14:11.374Z,27.62
2019-02-22T21:16:37.905Z,28.23
2019-02-22T21:19:06.093Z,23.50
2019-02-22T21:21:32.320Z,26.37
2019-02-22T21:23:58.502Z,24.82
2019-02-22T21:26:26.229Z,24.37
2019-02-22T21:28:52.507Z,26.75
2019-02-22T21:31:18.597Z,27.52
2019-02-22T21:33:44.840Z,25.88
2019-02-22T21:36:10.945Z,27.35
2019-02-22T21:38:37.136Z,28.87
2019-02-22T21:41:03.245Z,28.95
2019-02-22T21:43:31.333Z,28.42
2019-02-22T21:46:01.673Z,28.62
2019-02-22T21:48:31.230Z,30.05
2019-02-22T21:51:00.499Z,32.20
2019-02-22T21:53:26.951Z,28.80
2019-02-22T21:55:53.139Z,30.60
2019-02-22T21:58:19.353Z,29.85
2019-02-22T22:00:45.567Z,29.70
2019-02-22T22:03:11.689Z,32.28
2019-02-22T22:05:37.889Z,31.95
2019-02-22T22:08:04.970Z,30.50
2019-02-22T22:10:31.367Z,30.80
2019-02-22T22:12:57.443Z,34.40
2019-02-22T22:15:23.649Z,33.48
2019-02-22T22:17:49.740Z,31.40
2019-02-22T22:20:16.349Z,33.50
2019-02-22T22:22:42.495Z,31.93
2019-02-22T22:25:12.725Z,33.80
2019-02-22T22:27:38.909Z,21.68
2019-02-22T22:30:07.815Z,28.17
2019-02-22T22:32:33.999Z,31.37
2019-02-22T22:35:00.342Z,30.80
2019-02-22T22:37:27.139Z,31.20
2019-02-22T22:39:53.395Z,30.12
2019-02-22T22:42:20.388Z,31.80
2019-02-22T22:44:46.941Z,31.25
2019-02-22T22:47:13.087Z,33.28
2019-02-22T22:49:39.227Z,29.85
2019-02-22T22:52:05.627Z,29.70
2019-02-22T22:54:32.867Z,30.75
2019-02-22T22:56:59.357Z,31.52
2019-02-22T22:59:27.720Z,38.48
2019-02-22T23:01:54.623Z,31.07
2019-02-22T23:04:20.801Z,32.93
2019-02-22T23:06:47.142Z,29.50
2019-02-22T23:09:20.144Z,31.33
2019-02-22T23:11:46.809Z,32.48
2019-02-22T23:14:13.039Z,28.40
2019-02-22T23:16:39.266Z,31.48
2019-02-22T23:19:05.380Z,52.23
2019-02-22T23:21:31.669Z,35.70
2019-02-22T23:23:57.930Z,32.80
2019-02-22T23:26:24.210Z,27.98
2019-02-22T23:28:50.305Z,27.17
2019-02-22T23:31:16.568Z,30.60
2019-02-22T23:33:42.692Z,29.35
2019-02-22T23:36:08.867Z,29.63
2019-02-22T23:38:36.054Z,36.77
2019-02-22T23:41:02.257Z,31.05
2019-02-22T23:43:29.307Z,39.38
2019-02-22T23:45:55.515Z,32.58
2019-02-22T23:48:21.666Z,32.60
2019-02-22T23:50:47.898Z,29.63
2019-02-22T23:53:14.141Z,29.50
2019-02-22T23:55:40.296Z,34.15
2019-02-22T23:58:06.438Z,34.83
